Time;durP1;ratioP1;P1;durP2;ratioP2;P2;SDS_P1;SDS_P2;PMS_P1;PMS_P2;Temp;Humidity;BMP_temperature;BMP_pressure;BME280_temperature;BME280_humidity;BME280_pressure;Samples;Min_cycle;Max_cycle;Signal;HPM_P1;HPM_P2
2022/10/11 00:00:38;;;;;;;12.47;4.93;;;19.20;99.90;;;;;;5027804;28;20470;-72
2022/10/11 00:03:04;;;;;;;5.40;4.10;;;19.20;99.90;;;;;;5007071;28;20200;-72
2022/10/11 00:05:31;;;;;;;8.60;4.40;;;19.20;99.90;;;;;;5025780;28;20518;-72
2022/10/11 00:07:57;;;;;;;10.57;4.60;;;19.20;99.90;;;;;;5030154;28;20442;-72
2022/10/11 00:10:22;;;;;;;9.00;4.60;;;19.20;99.90;;;;;;5024015;28;20463;-73
2022/10/11 00:12:48;;;;;;;10.77;4.60;;;19.20;99.90;;;;;;5026696;28;20318;-72
2022/10/11 00:15:17;;;;;;;8.10;4.37;;;19.20;99.90;;;;;;5023016;28;20453;-72
2022/10/11 00:17:43;;;;;;;15.17;5.13;;;19.10;99.90;;;;;;5015102;28;20213;-72
2022/10/11 00:20:09;;;;;;;13.07;6.10;;;19.10;99.90;;;;;;5023542;28;20517;-72
2022/10/11 00:22:36;;;;;;;6.73;4.03;;;19.10;99.90;;;;;;4995646;28;20459;-72
2022/10/11 00:25:02;;;;;;;12.47;4.40;;;19.00;99.90;;;;;;5024602;28;20438;-72
2022/10/11 00:27:28;;;;;;;8.10;4.40;;;19.10;99.90;;;;;;5023429;28;20451;-72
2022/10/11 00:29:54;;;;;;;6.63;5.00;;;19.10;99.90;;;;;;5023413;28;20481;-72
2022/10/11 00:32:19;;;;;;;9.90;4.90;;;19.00;99.90;;;;;;5024063;28;20187;-72
2022/10/11 00:34:45;;;;;;;7.90;4.90;;;19.00;99.90;;;;;;5020209;28;20760;-72
2022/10/11 00:37:10;;;;;;;8.53;4.70;;;19.00;99.90;;;;;;5018718;28;20207;-72
2022/10/11 00:39:36;;;;;;;9.40;4.67;;;19.00;99.90;;;;;;5018647;28;20200;-72
2022/10/11 00:42:02;;;;;;;11.40;5.10;;;18.90;99.90;;;;;;5025342;28;20185;-72
2022/10/11 00:44:28;;;;;;;8.80;4.87;;;18.90;99.90;;;;;;5018145;28;20341;-72
2022/10/11 00:46:56;;;;;;;11.60;6.20;;;18.90;99.90;;;;;;5017705;28;20191;-72
2022/10/11 00:49:34;;;;;;;14.93;5.60;;;18.90;99.90;;;;;;5020576;28;20751;-72
2022/10/11 00:52:28;;;;;;;7.90;5.00;;;18.90;99.90;;;;;;5011074;28;20493;-72
2022/10/11 00:54:55;;;;;;;9.67;5.07;;;18.90;99.90;;;;;;5007157;28;20573;-72
2022/10/11 00:57:26;;;;;;;12.57;4.53;;;18.90;99.90;;;;;;5020655;28;20522;-72
2022/10/11 00:59:54;;;;;;;9.33;5.23;;;18.80;99.90;;;;;;5016810;28;20487;-73
2022/10/11 01:02:22;;;;;;;12.47;5.80;;;18.80;99.90;;;;;;5016601;28;20435;-72
2022/10/11 01:04:48;;;;;;;12.10;5.50;;;18.80;99.90;;;;;;5020752;28;20874;-73
2022/10/11 01:07:15;;;;;;;8.63;4.83;;;18.80;99.90;;;;;;5026346;28;20447;-72
2022/10/11 01:09:41;;;;;;;12.33;5.40;;;18.80;99.90;;;;;;5014911;28;20806;-73
2022/10/11 01:12:16;;;;;;;11.80;5.40;;;18.80;99.90;;;;;;5013660;28;20925;-72
2022/10/11 01:14:57;;;;;;;11.77;5.00;;;18.80;99.90;;;;;;5022646;28;20647;-73
2022/10/11 01:17:48;;;;;;;11.70;6.40;;;18.80;99.90;;;;;;5019365;28;20450;-73
2022/10/11 01:20:34;;;;;;;7.47;5.00;;;18.80;99.90;;;;;;5018960;28;20459;-74
2022/10/11 01:23:38;;;;;;;10.90;6.03;;;18.70;99.90;;;;;;5019104;28;20459;-73
2022/10/11 01:26:53;;;;;;;13.27;4.80;;;18.70;99.90;;;;;;5011139;28;20473;-73
2022/10/11 01:29:43;;;;;;;13.13;5.10;;;18.70;99.90;;;;;;5022982;28;20878;-71
2022/10/11 01:32:43;;;;;;;11.13;6.00;;;18.70;99.90;;;;;;5021710;28;20498;-71
2022/10/11 01:35:21;;;;;;;9.10;4.97;;;18.60;99.90;;;;;;4965404;28;20733;-71
2022/10/11 01:38:13;;;;;;;14.03;5.40;;;18.60;99.90;;;;;;5012750;28;20450;-72
2022/10/11 01:40:47;;;;;;;8.60;5.23;;;18.60;99.90;;;;;;4990511;28;20459;-71
2022/10/11 01:43:15;;;;;;;10.77;5.63;;;18.60;99.90;;;;;;5017665;28;20977;-71
2022/10/11 01:45:42;;;;;;;15.00;5.50;;;18.60;99.90;;;;;;5018617;28;20806;-71
2022/10/11 01:48:10;;;;;;;16.47;6.93;;;18.60;99.90;;;;;;5015756;28;20441;-72
2022/10/11 01:50:46;;;;;;;9.77;6.10;;;18.60;99.90;;;;;;5015912;28;20467;-72
2022/10/11 01:54:09;;;;;;;10.90;5.53;;;18.50;99.90;;;;;;5013186;28;20853;-72
2022/10/11 01:56:55;;;;;;;13.53;6.70;;;18.50;99.90;;;;;;4953497;28;20484;-72
2022/10/11 01:59:49;;;;;;;11.60;6.30;;;18.50;99.90;;;;;;4952677;28;20617;-71
2022/10/11 02:02:31;;;;;;;13.50;5.80;;;18.50;99.90;;;;;;5001621;28;20529;-72
2022/10/11 02:05:18;;;;;;;10.77;5.70;;;18.50;99.90;;;;;;5015783;28;20442;-72
2022/10/11 02:08:01;;;;;;;12.90;6.40;;;18.40;99.90;;;;;;5016032;28;20454;-72
2022/10/11 02:10:46;;;;;;;11.90;6.83;;;18.40;99.90;;;;;;5013465;28;20448;-72
2022/10/11 02:13:30;;;;;;;15.30;5.83;;;18.40;99.90;;;;;;5013840;28;20438;-72
2022/10/11 02:15:59;;;;;;;12.53;5.87;;;18.40;99.90;;;;;;5018956;28;20474;-72
2022/10/11 02:18:30;;;;;;;9.30;6.17;;;18.40;99.90;;;;;;5019439;28;20440;-72
2022/10/11 02:20:59;;;;;;;9.63;5.30;;;18.40;99.90;;;;;;5018942;28;20548;-72
2022/10/11 02:23:32;;;;;;;10.20;5.53;;;18.40;99.90;;;;;;5015827;28;20512;-72
2022/10/11 02:25:59;;;;;;;9.20;6.03;;;18.40;99.90;;;;;;5017618;28;20481;-72
2022/10/11 02:28:30;;;;;;;19.30;7.37;;;18.40;99.90;;;;;;5012222;28;20439;-72
2022/10/11 02:30:58;;;;;;;11.53;6.53;;;18.40;99.90;;;;;;5013487;28;20473;-72
2022/10/11 02:33:39;;;;;;;10.80;5.60;;;18.30;99.90;;;;;;5017586;28;20931;-72
2022/10/11 02:36:11;;;;;;;13.80;6.30;;;18.30;99.90;;;;;;5015748;28;20446;-71
2022/10/11 02:38:43;;;;;;;15.43;7.43;;;18.30;99.90;;;;;;5004465;28;20443;-72
2022/10/11 02:41:42;;;;;;;9.83;6.07;;;18.30;99.90;;;;;;5015562;28;20469;-72
2022/10/11 02:44:25;;;;;;;11.23;6.90;;;18.20;99.90;;;;;;5012235;28;20817;-72
2022/10/11 02:46:51;;;;;;;11.90;7.30;;;18.20;99.90;;;;;;5010554;28;20547;-72
2022/10/11 02:49:17;;;;;;;10.73;7.23;;;18.20;99.90;;;;;;5010987;28;20427;-72
2022/10/11 02:51:43;;;;;;;10.43;6.20;;;18.20;99.90;;;;;;5012129;28;20463;-72
2022/10/11 02:54:08;;;;;;;10.13;6.30;;;18.20;99.90;;;;;;5013705;28;20582;-72
2022/10/11 02:56:34;;;;;;;11.73;6.40;;;18.20;99.90;;;;;;5015415;28;20681;-72
2022/10/11 02:58:59;;;;;;;13.00;6.83;;;18.20;99.90;;;;;;5014480;28;20591;-72
2022/10/11 03:01:25;;;;;;;11.57;6.10;;;18.00;99.90;;;;;;5012800;28;20618;-72
2022/10/11 03:03:50;;;;;;;13.33;7.70;;;18.00;99.90;;;;;;5018901;28;20547;-72
2022/10/11 03:06:16;;;;;;;9.03;6.90;;;18.00;99.90;;;;;;5014679;28;20268;-72
2022/10/11 03:08:41;;;;;;;14.07;7.67;;;18.00;99.90;;;;;;5014170;28;20208;-72
2022/10/11 03:11:07;;;;;;;11.30;7.80;;;18.00;99.90;;;;;;5001877;28;20235;-72
2022/10/11 03:13:32;;;;;;;16.77;8.90;;;18.00;99.90;;;;;;5019463;28;20192;-72
2022/10/11 03:15:59;;;;;;;10.90;7.80;;;17.90;99.90;;;;;;4999990;28;20176;-72
2022/10/11 03:18:24;;;;;;;12.10;9.13;;;17.90;99.90;;;;;;5017345;28;20172;-72
2022/10/11 03:20:50;;;;;;;15.60;9.60;;;17.80;99.90;;;;;;5008646;28;20988;-73
2022/10/11 03:23:15;;;;;;;12.30;9.97;;;17.80;99.90;;;;;;5016226;28;20201;-73
2022/10/11 03:25:41;;;;;;;16.40;9.77;;;17.70;99.90;;;;;;5021549;28;20646;-72
2022/10/11 03:28:06;;;;;;;12.33;9.60;;;17.70;99.90;;;;;;4994561;28;20634;-72
2022/10/11 03:30:32;;;;;;;21.33;10.70;;;17.70;99.90;;;;;;5019867;28;20222;-72
2022/10/11 03:32:57;;;;;;;11.47;9.93;;;17.60;99.90;;;;;;5019201;28;20689;-72
2022/10/11 03:35:23;;;;;;;16.67;11.13;;;17.60;99.90;;;;;;5022808;28;20199;-72
2022/10/11 03:37:49;;;;;;;18.37;12.03;;;17.50;99.90;;;;;;5015657;28;20200;-72
2022/10/11 03:40:14;;;;;;;18.97;12.43;;;17.50;99.90;;;;;;5022625;28;20284;-72
2022/10/11 03:42:40;;;;;;;15.67;11.47;;;17.50;99.90;;;;;;5021760;28;20650;-72
2022/10/11 03:45:08;;;;;;;14.97;11.60;;;17.50;99.90;;;;;;5022909;28;20191;-72
2022/10/11 03:47:35;;;;;;;22.13;13.70;;;17.40;99.90;;;;;;5020083;28;20621;-72
2022/10/11 03:50:01;;;;;;;18.83;13.40;;;17.30;99.90;;;;;;5006337;28;20460;-72
2022/10/11 03:52:26;;;;;;;21.97;12.17;;;17.30;99.90;;;;;;5022351;28;20446;-73
2022/10/11 03:54:52;;;;;;;20.47;11.40;;;17.30;99.90;;;;;;5025506;28;20177;-72
2022/10/11 03:57:18;;;;;;;20.07;12.97;;;17.30;99.90;;;;;;5024401;28;20619;-72
2022/10/11 03:59:44;;;;;;;19.60;11.87;;;17.30;99.90;;;;;;5018488;28;20245;-72
2022/10/11 04:02:09;;;;;;;17.90;13.00;;;17.20;99.90;;;;;;5021335;28;20682;-73
2022/10/11 04:04:35;;;;;;;14.77;12.23;;;17.20;99.90;;;;;;5020791;28;20579;-73
2022/10/11 04:07:00;;;;;;;16.00;11.87;;;17.10;99.90;;;;;;5018251;28;20176;-73
2022/10/11 04:09:26;;;;;;;20.83;12.20;;;17.10;99.90;;;;;;5026356;28;20315;-73
2022/10/11 04:11:51;;;;;;;17.70;12.90;;;17.10;99.90;;;;;;5019960;28;20642;-73
2022/10/11 04:14:17;;;;;;;21.33;13.70;;;17.10;99.90;;;;;;5024137;28;20254;-72
2022/10/11 04:16:43;;;;;;;16.67;13.20;;;17.00;99.90;;;;;;5025073;28;20272;-72
2022/10/11 04:19:08;;;;;;;24.53;12.77;;;17.00;99.90;;;;;;5025839;28;20192;-72
2022/10/11 04:21:34;;;;;;;17.00;12.70;;;17.00;99.90;;;;;;5022755;28;20295;-72
2022/10/11 04:23:59;;;;;;;18.33;14.30;;;16.90;99.90;;;;;;5025883;28;20235;-73
2022/10/11 04:26:25;;;;;;;21.63;13.37;;;16.90;99.90;;;;;;5015315;28;20840;-73
2022/10/11 04:28:51;;;;;;;19.90;15.13;;;16.90;99.90;;;;;;5020539;28;20733;-73
2022/10/11 04:31:16;;;;;;;23.43;15.70;;;16.80;99.90;;;;;;5024503;28;20513;-73
2022/10/11 04:33:42;;;;;;;26.93;17.20;;;16.80;99.90;;;;;;5020381;28;20231;-73
2022/10/11 04:36:07;;;;;;;19.63;14.67;;;16.80;99.90;;;;;;5019231;28;20184;-73
2022/10/11 04:38:33;;;;;;;29.80;18.67;;;16.70;99.90;;;;;;5022600;28;20537;-73
2022/10/11 04:41:10;;;;;;;20.30;16.73;;;16.70;99.90;;;;;;5021150;28;20204;-72
2022/10/11 04:43:36;;;;;;;24.20;16.77;;;16.60;99.90;;;;;;5024398;28;20278;-73
2022/10/11 04:46:02;;;;;;;26.67;16.67;;;16.60;99.90;;;;;;5006542;28;20443;-72
2022/10/11 04:48:28;;;;;;;27.13;17.67;;;16.60;99.90;;;;;;5024320;28;20445;-71
2022/10/11 04:50:53;;;;;;;26.73;18.07;;;16.50;99.90;;;;;;5005627;28;20999;-72
2022/10/11 04:53:19;;;;;;;23.73;19.20;;;16.50;99.90;;;;;;5023042;28;20192;-73
2022/10/11 04:55:55;;;;;;;24.83;16.50;;;16.50;99.90;;;;;;5017926;28;20188;-72
2022/10/11 04:58:20;;;;;;;29.53;18.53;;;16.50;99.90;;;;;;5022981;28;20196;-72
2022/10/11 05:00:46;;;;;;;19.70;17.23;;;16.50;99.90;;;;;;5023520;28;20447;-72
2022/10/11 05:03:12;;;;;;;28.40;17.60;;;16.50;99.90;;;;;;5006727;28;20215;-72
2022/10/11 05:05:37;;;;;;;20.57;16.80;;;16.50;99.90;;;;;;5022008;28;20187;-73
2022/10/11 05:08:03;;;;;;;22.23;16.60;;;16.40;99.90;;;;;;5026822;28;20314;-72
2022/10/11 05:10:29;;;;;;;25.03;18.57;;;16.40;99.90;;;;;;5013516;28;20713;-72
2022/10/11 05:12:54;;;;;;;23.37;18.30;;;16.40;99.90;;;;;;5024610;28;20230;-73
2022/10/11 05:15:20;;;;;;;24.93;18.37;;;16.40;99.90;;;;;;5019265;28;20200;-72
2022/10/11 05:17:45;;;;;;;23.90;17.40;;;16.40;99.90;;;;;;5022160;28;20181;-72
2022/10/11 05:20:11;;;;;;;25.93;19.47;;;16.40;99.90;;;;;;5022846;28;20203;-73
2022/10/11 05:22:37;;;;;;;26.03;18.80;;;16.40;99.90;;;;;;5012846;28;20411;-73
2022/10/11 05:25:03;;;;;;;24.67;16.00;;;16.40;99.90;;;;;;5018116;28;20816;-73
2022/10/11 05:27:28;;;;;;;20.10;15.20;;;16.40;99.90;;;;;;5017445;28;20193;-73
2022/10/11 05:29:54;;;;;;;21.33;14.63;;;16.40;99.90;;;;;;5022231;28;20219;-72
2022/10/11 05:32:19;;;;;;;20.60;14.60;;;16.40;99.90;;;;;;5019804;28;20176;-71
2022/10/11 05:34:45;;;;;;;16.57;13.17;;;16.40;99.90;;;;;;5021181;28;20180;-71
2022/10/11 05:37:10;;;;;;;20.10;15.10;;;16.40;99.90;;;;;;5021088;28;20263;-73
2022/10/11 05:39:36;;;;;;;14.93;12.47;;;16.40;99.90;;;;;;5027213;28;20203;-72
2022/10/11 05:42:01;;;;;;;15.90;13.00;;;16.40;99.90;;;;;;5024926;28;20207;-72
2022/10/11 05:44:27;;;;;;;20.63;13.43;;;16.30;99.90;;;;;;5026877;28;20211;-72
2022/10/11 05:46:52;;;;;;;14.60;12.30;;;16.30;99.90;;;;;;5025129;28;20178;-72
2022/10/11 05:49:18;;;;;;;16.87;11.83;;;16.30;99.90;;;;;;5018446;28;20276;-72
2022/10/11 05:51:44;;;;;;;18.57;12.87;;;16.30;99.90;;;;;;5020069;28;20799;-72
2022/10/11 05:54:09;;;;;;;16.63;11.40;;;16.30;99.90;;;;;;5018026;28;20242;-73
2022/10/11 05:56:35;;;;;;;19.77;11.50;;;16.40;99.90;;;;;;5019455;28;20720;-72
2022/10/11 05:59:00;;;;;;;14.00;11.83;;;16.40;99.90;;;;;;4997171;28;20385;-72
2022/10/11 06:01:26;;;;;;;18.30;11.73;;;16.40;99.90;;;;;;5016750;28;20209;-71
2022/10/11 06:03:52;;;;;;;15.17;11.57;;;16.40;99.90;;;;;;5017988;28;20262;-71
2022/10/11 06:06:19;;;;;;;12.13;9.90;;;16.40;99.90;;;;;;5021058;28;20806;-71
2022/10/11 06:08:45;;;;;;;17.57;10.13;;;16.40;99.90;;;;;;5020546;28;20618;-71
2022/10/11 06:11:17;;;;;;;10.77;8.20;;;16.30;99.90;;;;;;5020187;28;20456;-69
2022/10/11 06:13:43;;;;;;;11.73;9.10;;;16.30;99.90;;;;;;5017921;28;20451;-70
2022/10/11 06:16:09;;;;;;;16.13;8.70;;;16.30;99.90;;;;;;5014862;28;20448;-69
2022/10/11 06:18:35;;;;;;;13.03;8.33;;;16.40;99.90;;;;;;5007074;28;20431;-69
2022/10/11 06:21:01;;;;;;;12.70;8.43;;;16.40;99.90;;;;;;5012091;28;20993;-71
2022/10/11 06:23:27;;;;;;;9.53;6.97;;;16.40;99.90;;;;;;5013587;28;20211;-69
2022/10/11 06:26:05;;;;;;;11.43;6.90;;;16.40;99.90;;;;;;5000720;28;20424;-69
2022/10/11 06:28:31;;;;;;;12.23;7.20;;;16.50;99.90;;;;;;5022434;28;20446;-70
2022/10/11 06:30:57;;;;;;;16.13;6.57;;;16.40;99.90;;;;;;5013865;28;20457;-69
2022/10/11 06:33:23;;;;;;;16.53;7.47;;;16.40;99.90;;;;;;5020935;28;20813;-72
2022/10/11 06:35:49;;;;;;;11.07;5.47;;;16.40;99.90;;;;;;5016082;28;20645;-69
2022/10/11 06:38:15;;;;;;;7.27;4.93;;;16.40;99.90;;;;;;5013019;28;20442;-71
2022/10/11 06:40:41;;;;;;;9.33;4.73;;;16.40;99.90;;;;;;5009827;28;20551;-70
2022/10/11 06:43:06;;;;;;;11.97;4.90;;;16.40;99.90;;;;;;5014529;28;20485;-72
2022/10/11 06:45:32;;;;;;;7.43;4.37;;;16.30;99.90;;;;;;5010833;28;20181;-71
2022/10/11 06:47:57;;;;;;;6.33;3.67;;;16.40;99.90;;;;;;5023888;28;20186;-72
2022/10/11 06:50:23;;;;;;;9.40;4.20;;;16.30;99.90;;;;;;5013787;28;20216;-71
2022/10/11 06:52:49;;;;;;;9.33;4.00;;;16.30;99.90;;;;;;5019438;28;20593;-71
2022/10/11 06:55:14;;;;;;;8.63;4.60;;;16.30;99.90;;;;;;5012260;28;20193;-71
2022/10/11 06:57:40;;;;;;;9.90;3.50;;;16.30;99.90;;;;;;5015314;28;20447;-71
2022/10/11 07:00:06;;;;;;;7.20;3.27;;;16.20;99.90;;;;;;5007810;28;20227;-71
2022/10/11 07:02:32;;;;;;;5.20;3.00;;;16.20;99.90;;;;;;5020212;28;20185;-71
2022/10/11 07:04:57;;;;;;;16.23;3.77;;;16.20;99.90;;;;;;5018461;28;20807;-71
2022/10/11 07:07:23;;;;;;;6.47;3.07;;;16.30;99.90;;;;;;5014662;28;20177;-71
2022/10/11 07:09:48;;;;;;;8.80;3.80;;;16.30;99.90;;;;;;5024625;28;20196;-71
2022/10/11 07:12:15;;;;;;;6.83;3.13;;;16.20;99.90;;;;;;5016651;28;20546;-68
2022/10/11 07:14:40;;;;;;;8.53;3.20;;;16.30;99.90;;;;;;5015122;28;20203;-70
2022/10/11 07:17:06;;;;;;;5.40;3.00;;;16.30;99.90;;;;;;5009785;28;20957;-69
2022/10/11 07:19:32;;;;;;;6.67;3.40;;;16.20;99.90;;;;;;5019526;28;20250;-69
2022/10/11 07:21:57;;;;;;;5.90;3.27;;;16.30;99.90;;;;;;5017921;28;20217;-69
2022/10/11 07:24:23;;;;;;;6.60;3.17;;;16.30;99.90;;;;;;5025569;28;20564;-69
2022/10/11 07:26:48;;;;;;;12.77;3.30;;;16.40;99.90;;;;;;5023613;28;20234;-69
2022/10/11 07:29:14;;;;;;;9.10;3.80;;;16.30;99.90;;;;;;5017745;28;20195;-68
2022/10/11 07:31:41;;;;;;;5.77;3.13;;;16.30;99.90;;;;;;5020846;28;20413;-69
2022/10/11 07:34:07;;;;;;;7.37;3.30;;;16.40;99.90;;;;;;5015732;28;20275;-71
2022/10/11 07:36:33;;;;;;;10.33;3.83;;;16.40;99.90;;;;;;5023262;28;20423;-70
2022/10/11 07:39:13;;;;;;;7.30;4.43;;;16.30;99.90;;;;;;5007923;28;20999;-70
2022/10/11 07:41:39;;;;;;;8.17;2.97;;;16.30;99.90;;;;;;5017952;28;20467;-71
2022/10/11 07:44:04;;;;;;;13.17;3.27;;;16.30;99.90;;;;;;5015951;28;20637;-70
2022/10/11 07:46:30;;;;;;;8.20;3.03;;;16.30;99.90;;;;;;5016583;28;20694;-69
2022/10/11 07:48:56;;;;;;;8.93;2.73;;;16.30;99.90;;;;;;5011650;28;20182;-69
2022/10/11 07:51:23;;;;;;;7.57;3.00;;;16.20;99.90;;;;;;5021782;28;20243;-69
2022/10/11 07:53:51;;;;;;;8.80;3.10;;;16.20;99.90;;;;;;5017559;28;20216;-70
2022/10/11 07:56:20;;;;;;;9.27;3.47;;;16.30;99.90;;;;;;5019535;28;20437;-70
2022/10/11 07:58:50;;;;;;;11.80;6.17;;;16.30;99.90;;;;;;5016181;28;20501;-71
2022/10/11 08:01:16;;;;;;;10.70;6.13;;;16.30;99.90;;;;;;5019608;28;20498;-69
2022/10/11 08:03:42;;;;;;;12.50;5.83;;;16.30;99.90;;;;;;5015987;28;20781;-70
2022/10/11 08:06:10;;;;;;;9.53;3.23;;;16.30;99.90;;;;;;5016518;28;20185;-69
2022/10/11 08:08:36;;;;;;;10.40;3.97;;;16.40;99.90;;;;;;5012565;28;20189;-70
2022/10/11 08:11:02;;;;;;;15.60;3.07;;;16.40;99.90;;;;;;5017484;28;20821;-70
2022/10/11 08:13:28;;;;;;;8.13;3.33;;;16.50;99.90;;;;;;5013252;28;21144;-70
2022/10/11 08:15:53;;;;;;;11.60;3.60;;;16.50;99.90;;;;;;5018294;28;20423;-69
2022/10/11 08:18:19;;;;;;;13.67;3.50;;;16.50;99.90;;;;;;5018099;28;20259;-69
2022/10/11 08:20:45;;;;;;;9.00;3.53;;;16.60;99.90;;;;;;5017919;28;20238;-70
2022/10/11 08:23:11;;;;;;;13.80;3.33;;;16.60;99.90;;;;;;5015186;28;20875;-70
2022/10/11 08:25:42;;;;;;;13.70;3.50;;;16.60;99.90;;;;;;5019105;28;20187;-72
2022/10/11 08:28:09;;;;;;;12.00;3.90;;;16.60;99.90;;;;;;5022446;28;20443;-70
2022/10/11 08:30:35;;;;;;;6.00;2.73;;;16.50;99.90;;;;;;5021818;28;20859;-69
2022/10/11 08:33:00;;;;;;;10.47;4.07;;;16.50;99.90;;;;;;5016947;28;20467;-70
2022/10/11 08:35:26;;;;;;;10.23;2.90;;;16.60;99.90;;;;;;5022089;28;21100;-69
2022/10/11 08:37:51;;;;;;;6.53;3.10;;;16.60;99.90;;;;;;5016486;28;20453;-69
2022/10/11 08:40:19;;;;;;;8.60;3.40;;;16.60;99.90;;;;;;5020892;28;20302;-70
2022/10/11 08:42:53;;;;;;;8.17;3.20;;;16.60;99.90;;;;;;5020009;28;20342;-70
2022/10/11 08:45:47;;;;;;;15.17;4.10;;;16.60;99.90;;;;;;5016292;28;21005;-68
2022/10/11 08:48:21;;;;;;;9.13;3.90;;;16.60;99.90;;;;;;5009079;28;20441;-68
2022/10/11 08:50:51;;;;;;;8.03;3.53;;;16.60;99.90;;;;;;5014714;28;20454;-72
2022/10/11 08:53:41;;;;;;;12.73;4.00;;;16.50;99.90;;;;;;5016395;28;21577;-70
2022/10/11 08:56:11;;;;;;;11.50;3.73;;;16.50;99.90;;;;;;5022831;28;20443;-70
2022/10/11 08:58:43;;;;;;;8.60;3.23;;;16.40;99.90;;;;;;5015722;28;20847;-71
2022/10/11 09:01:17;;;;;;;6.33;3.30;;;16.40;99.90;;;;;;5012978;28;20481;-70
2022/10/11 09:03:47;;;;;;;8.10;3.17;;;16.50;99.90;;;;;;5014699;28;20473;-70
2022/10/11 09:06:29;;;;;;;6.80;3.33;;;16.50;99.90;;;;;;5017665;28;20525;-69
2022/10/11 09:09:36;;;;;;;10.63;3.40;;;16.50;99.90;;;;;;5018811;28;20431;-72
2022/10/11 09:12:05;;;;;;;8.07;3.40;;;16.60;99.90;;;;;;5006033;28;20513;-70
2022/10/11 09:14:52;;;;;;;12.00;4.37;;;16.60;99.90;;;;;;5018201;28;20442;-70
2022/10/11 09:17:30;;;;;;;16.20;4.47;;;16.50;99.90;;;;;;5016934;28;20438;-68
2022/10/11 09:20:23;;;;;;;7.27;3.10;;;16.50;99.90;;;;;;5017605;28;20639;-69
2022/10/11 09:22:57;;;;;;;7.97;3.60;;;16.50;99.90;;;;;;5009596;28;20529;-66
2022/10/11 09:25:45;;;;;;;7.00;3.77;;;16.50;99.90;;;;;;5018254;28;20446;-70
2022/10/11 09:28:30;;;;;;;7.13;3.60;;;16.50;99.90;;;;;;5018910;28;20460;-69
2022/10/11 09:30:57;;;;;;;8.80;3.97;;;16.50;99.90;;;;;;5015540;28;20879;-69
2022/10/11 09:33:35;;;;;;;16.10;4.20;;;16.60;99.90;;;;;;5012119;28;20809;-71
2022/10/11 09:36:15;;;;;;;12.70;4.83;;;16.70;99.90;;;;;;5019430;28;20571;-70
2022/10/11 09:39:24;;;;;;;9.50;4.13;;;16.70;99.90;;;;;;5014629;28;20455;-71
2022/10/11 09:41:58;;;;;;;8.23;3.30;;;16.70;99.90;;;;;;5019535;28;20787;-68
2022/10/11 09:44:26;;;;;;;14.80;4.10;;;16.80;99.90;;;;;;4996644;28;21231;-67
2022/10/11 09:46:56;;;;;;;13.20;5.80;;;16.80;99.90;;;;;;5017168;28;20901;-70
2022/10/11 09:49:45;;;;;;;7.23;4.73;;;17.00;99.90;;;;;;5012087;28;20439;-68
2022/10/11 09:52:15;;;;;;;11.50;4.70;;;17.10;99.90;;;;;;4999153;28;20474;-68
2022/10/11 09:54:44;;;;;;;8.63;4.13;;;17.30;99.90;;;;;;5016564;28;20937;-69
2022/10/11 09:57:26;;;;;;;12.30;4.90;;;17.40;99.90;;;;;;5019520;28;20526;-69
2022/10/11 10:00:22;;;;;;;8.90;4.40;;;17.60;99.90;;;;;;5015944;28;20482;-69
2022/10/11 10:02:50;;;;;;;15.47;3.80;;;17.60;99.90;;;;;;5013520;28;20446;-69
2022/10/11 10:05:20;;;;;;;9.77;4.80;;;17.80;99.90;;;;;;5012742;28;20879;-70
2022/10/11 10:08:10;;;;;;;12.80;4.80;;;17.80;99.90;;;;;;5013260;28;20872;-70
2022/10/11 10:10:50;;;;;;;11.33;3.53;;;17.90;99.90;;;;;;5015132;28;20439;-69
2022/10/11 10:13:19;;;;;;;13.10;4.70;;;18.00;99.90;;;;;;5013959;28;20802;-70
2022/10/11 10:15:47;;;;;;;10.77;4.27;;;17.90;99.90;;;;;;5019949;28;20446;-71
2022/10/11 10:18:31;;;;;;;9.43;3.80;;;17.90;99.90;;;;;;5014427;28;20771;-70
2022/10/11 10:20:58;;;;;;;15.13;4.50;;;17.90;99.90;;;;;;5015128;28;20474;-69
2022/10/11 10:23:34;;;;;;;12.10;4.23;;;17.90;99.90;;;;;;5011523;28;20682;-69
2022/10/11 10:26:14;;;;;;;11.73;4.80;;;18.00;99.90;;;;;;5020754;28;20438;-68
2022/10/11 10:29:01;;;;;;;8.37;4.30;;;18.00;99.90;;;;;;5015990;28;20432;-68
2022/10/11 10:31:48;;;;;;;8.97;4.40;;;18.10;99.90;;;;;;5012589;28;20683;-68
2022/10/11 10:34:27;;;;;;;6.90;4.30;;;18.20;99.90;;;;;;5010885;28;20587;-68
2022/10/11 10:36:56;;;;;;;9.33;4.40;;;18.30;99.90;;;;;;5013281;28;20899;-68
2022/10/11 10:39:41;;;;;;;12.50;4.10;;;18.30;99.90;;;;;;5003345;28;20440;-68
2022/10/11 10:42:14;;;;;;;11.70;4.73;;;18.40;99.90;;;;;;5009099;28;20470;-68
2022/10/11 10:44:40;;;;;;;6.90;5.40;;;18.40;99.90;;;;;;5010079;28;20464;-68
2022/10/11 10:47:38;;;;;;;7.50;4.40;;;18.50;99.90;;;;;;4996530;28;20467;-69
2022/10/11 10:50:17;;;;;;;7.63;4.10;;;18.50;99.90;;;;;;5002018;28;20493;-68
2022/10/11 10:52:47;;;;;;;11.97;4.20;;;18.50;99.90;;;;;;5013788;28;20514;-68
2022/10/11 10:55:43;;;;;;;12.60;4.90;;;18.60;99.90;;;;;;5012450;28;20427;-71
2022/10/11 10:58:24;;;;;;;10.77;3.90;;;18.50;99.90;;;;;;5010172;28;20476;-71
2022/10/11 11:00:57;;;;;;;12.83;4.17;;;18.50;99.90;;;;;;5011284;28;20535;-69
2022/10/11 11:03:49;;;;;;;8.73;4.20;;;18.50;99.90;;;;;;5008047;28;20461;-70
2022/10/11 11:06:37;;;;;;;7.90;3.77;;;18.40;99.90;;;;;;5015107;28;20541;-71
2022/10/11 11:09:22;;;;;;;11.97;5.20;;;18.50;99.90;;;;;;5014675;28;20483;-70
2022/10/11 11:12:25;;;;;;;10.13;5.17;;;18.50;99.90;;;;;;5017219;28;20435;-69
2022/10/11 11:15:12;;;;;;;16.57;4.30;;;18.60;99.90;;;;;;5011351;28;20568;-71
2022/10/11 11:17:48;;;;;;;9.20;4.03;;;18.80;99.90;;;;;;5017426;28;20886;-71
2022/10/11 11:20:50;;;;;;;9.97;4.00;;;18.80;99.90;;;;;;5012377;28;20454;-71
2022/10/11 11:23:22;;;;;;;8.90;3.97;;;18.90;99.90;;;;;;5014246;28;20558;-71
2022/10/11 11:25:53;;;;;;;12.40;4.93;;;18.90;99.90;;;;;;5012618;28;20414;-71
2022/10/11 11:28:53;;;;;;;9.07;5.80;;;18.90;99.90;;;;;;5015517;28;20944;-71
2022/10/11 11:31:31;;;;;;;10.83;4.70;;;19.00;99.90;;;;;;5009543;28;20589;-70
2022/10/11 11:34:25;;;;;;;17.80;5.37;;;19.00;99.90;;;;;;5012860;28;20439;-70
2022/10/11 11:37:00;;;;;;;9.80;5.33;;;19.10;99.90;;;;;;5011694;28;20810;-70
2022/10/11 11:39:34;;;;;;;15.53;5.30;;;19.20;99.90;;;;;;5010217;28;20443;-70
2022/10/11 11:42:03;;;;;;;8.53;4.80;;;19.10;99.90;;;;;;5009755;28;20443;-70
2022/10/11 11:44:54;;;;;;;15.00;5.17;;;19.20;99.90;;;;;;5010513;28;20477;-70
2022/10/11 11:47:26;;;;;;;7.70;4.70;;;19.10;99.90;;;;;;4999007;28;20451;-70
2022/10/11 11:50:01;;;;;;;8.20;4.83;;;19.20;99.90;;;;;;5012504;28;20811;-70
2022/10/11 11:52:31;;;;;;;18.20;4.93;;;19.20;99.90;;;;;;5015618;28;20434;-70
2022/10/11 11:55:03;;;;;;;7.87;4.60;;;19.20;99.90;;;;;;5014581;28;20435;-70
2022/10/11 11:57:41;;;;;;;9.60;6.23;;;19.20;99.90;;;;;;5013311;28;20836;-69
2022/10/11 12:00:17;;;;;;;15.33;7.23;;;19.20;99.90;;;;;;5015148;28;20455;-70
2022/10/11 12:03:02;;;;;;;12.83;4.90;;;19.30;99.90;;;;;;5019066;28;20512;-71
2022/10/11 12:05:31;;;;;;;14.00;6.73;;;19.30;99.90;;;;;;5005538;28;20871;-71
2022/10/11 12:08:23;;;;;;;9.50;5.83;;;19.30;99.90;;;;;;5001866;28;20831;-70
2022/10/11 12:10:48;;;;;;;6.43;4.73;;;19.30;99.90;;;;;;5014214;28;20531;-70
2022/10/11 12:13:21;;;;;;;12.97;4.70;;;19.30;99.90;;;;;;5021031;28;20451;-70
2022/10/11 12:16:00;;;;;;;10.43;5.30;;;19.30;99.90;;;;;;5003506;28;20208;-70
2022/10/11 12:18:27;;;;;;;8.87;5.00;;;19.30;99.90;;;;;;5020264;28;20511;-70
2022/10/11 12:21:04;;;;;;;8.33;5.27;;;19.30;99.90;;;;;;5011377;28;20692;-70
2022/10/11 12:23:30;;;;;;;8.67;5.60;;;19.30;99.90;;;;;;5016988;28;20504;-70
2022/10/11 12:26:26;;;;;;;8.60;4.90;;;19.30;99.90;;;;;;5014688;28;20533;-70
2022/10/11 12:29:15;;;;;;;8.53;5.30;;;19.30;99.90;;;;;;5019495;28;20182;-70
2022/10/11 12:31:42;;;;;;;8.13;4.83;;;19.40;99.90;;;;;;5020818;28;20466;-68
2022/10/11 12:34:07;;;;;;;9.90;5.77;;;19.40;99.90;;;;;;5020867;28;20522;-67
2022/10/11 12:36:43;;;;;;;14.17;5.90;;;19.40;99.90;;;;;;5022219;28;20464;-65
2022/10/11 12:39:17;;;;;;;9.40;5.37;;;19.40;99.90;;;;;;5015470;28;20546;-67
2022/10/11 12:41:52;;;;;;;6.47;5.60;;;19.40;99.90;;;;;;5014865;28;20461;-69
2022/10/11 12:44:17;;;;;;;6.47;4.40;;;19.40;99.90;;;;;;5015925;28;21844;-66
2022/10/11 12:46:49;;;;;;;8.50;5.37;;;19.40;99.90;;;;;;5019878;28;20524;-65
2022/10/11 12:49:20;;;;;;;8.47;4.90;;;19.40;99.90;;;;;;5021989;28;20187;-64
2022/10/11 12:51:51;;;;;;;11.37;5.00;;;19.40;99.90;;;;;;5014047;28;20485;-65
2022/10/11 12:54:56;;;;;;;11.17;5.70;;;19.40;99.90;;;;;;5007081;28;20801;-65
2022/10/11 12:57:49;;;;;;;6.67;5.00;;;19.40;99.90;;;;;;5010963;28;20541;-65
2022/10/11 13:00:30;;;;;;;6.63;4.80;;;19.50;99.90;;;;;;5013120;28;20471;-65
2022/10/11 13:03:03;;;;;;;10.27;5.23;;;19.70;99.90;;;;;;5009947;28;20493;-65